Time;durP1;ratioP1;P1;durP2;ratioP2;P2;SDS_P1;SDS_P2;PMS_P1;PMS_P2;Temp;Humidity;BMP_temperature;BMP_pressure;BME280_temperature;BME280_humidity;BME280_pressure;Samples;Min_cycle;Max_cycle;Signal;HPM_P1;HPM_P2
2022/01/01 00:00:16;;;;;;;1.80;1.70;;;5.90;99.90;5.30;94697.00;;;;4941924;28;20203;-82
2022/01/01 00:02:43;;;;;;;2.77;2.00;;;5.90;99.90;6.00;94546.00;;;;4938258;28;20203;-83
2022/01/01 00:05:13;;;;;;;3.47;1.80;;;5.90;99.90;4.80;94637.00;;;;4942404;28;20739;-83
2022/01/01 00:07:40;;;;;;;2.20;1.80;;;5.90;99.90;6.00;94819.00;;;;4955485;28;20195;-82
2022/01/01 00:10:09;;;;;;;2.23;1.93;;;5.80;99.90;4.70;94825.00;;;;4947200;28;20245;-82
2022/01/01 00:12:40;;;;;;;2.43;1.80;;;5.80;99.90;6.30;94524.00;;;;4946537;28;20195;-82
2022/01/01 00:15:08;;;;;;;3.17;1.90;;;5.90;99.90;6.10;94526.00;;;;4963625;28;20201;-83
2022/01/01 00:17:35;;;;;;;2.00;1.80;;;5.90;99.90;5.90;94963.00;;;;4941248;28;20209;-83
2022/01/01 00:20:03;;;;;;;2.20;1.80;;;6.00;99.90;6.10;94866.00;;;;4946860;28;20203;-84
2022/01/01 00:22:30;;;;;;;3.17;2.10;;;5.90;99.90;5.40;94919.00;;;;4929723;28;20210;-84
2022/01/01 00:24:58;;;;;;;6.13;2.00;;;5.80;99.90;5.50;94967.00;;;;4940357;28;20218;-81
2022/01/01 00:27:25;;;;;;;6.87;1.93;;;5.60;99.90;5.50;94612.00;;;;4941243;28;20725;-82
2022/01/01 00:29:53;;;;;;;2.13;1.83;;;5.40;99.90;5.30;94661.00;;;;4942418;29;20187;-82
2022/01/01 00:32:21;;;;;;;3.10;1.77;;;5.30;99.90;5.40;94746.00;;;;4939814;29;20199;-84
2022/01/01 00:34:50;;;;;;;3.30;1.93;;;5.20;99.90;5.60;94610.00;;;;4956733;28;20581;-83
2022/01/01 00:37:18;;;;;;;3.90;2.00;;;5.30;99.90;5.80;94639.00;;;;4940764;28;20218;-83
2022/01/01 00:39:48;;;;;;;3.20;2.10;;;5.40;99.90;5.70;94955.00;;;;4944183;28;20245;-82
2022/01/01 00:42:16;;;;;;;2.63;2.23;;;5.40;99.90;6.00;94756.00;;;;4942314;29;20191;-82
2022/01/01 00:44:45;;;;;;;3.03;2.40;;;5.60;99.90;6.60;94650.00;;;;4939055;29;20207;-83
2022/01/01 00:47:12;;;;;;;3.07;2.60;;;5.90;1.00;6.80;94915.00;;;;4940589;29;20199;-82
2022/01/01 00:49:40;;;;;;;3.10;2.43;;;6.20;1.00;7.00;94620.00;;;;4956134;28;20195;-82
2022/01/01 00:52:10;;;;;;;2.77;2.43;;;6.40;1.00;7.00;94952.00;;;;4958675;28;20218;-83
2022/01/01 00:54:37;;;;;;;2.27;2.00;;;6.50;1.00;6.80;94928.00;;;;4939038;28;20195;-83
2022/01/01 00:57:04;;;;;;;4.00;2.47;;;6.60;1.00;7.20;94960.00;;;;4937130;28;20673;-83
2022/01/01 00:59:31;;;;;;;4.20;2.37;;;6.70;1.00;6.90;94889.00;;;;4941688;28;20229;-83
2022/01/01 01:01:59;;;;;;;2.13;1.93;;;6.80;1.00;7.20;94810.00;;;;4937045;29;20693;-84
2022/01/01 01:04:26;;;;;;;3.00;1.80;;;6.90;1.00;7.40;94843.00;;;;4959242;28;20215;-84
2022/01/01 01:06:55;;;;;;;2.53;1.90;;;6.90;1.00;7.50;94800.00;;;;4950671;28;20724;-83
2022/01/01 01:09:22;;;;;;;2.13;1.80;;;7.00;1.00;7.50;94901.00;;;;4956678;28;20635;-82
2022/01/01 01:11:52;;;;;;;3.60;1.80;;;7.00;1.00;7.30;94906.00;;;;4938803;28;21529;-83
2022/01/01 01:14:21;;;;;;;3.45;1.60;;;7.10;1.00;7.00;94884.00;;;;4956404;28;20269;-83
2022/01/01 01:16:53;;;;;;;2.13;1.60;;;7.00;1.00;6.30;94739.00;;;;4942176;28;20262;-81
2022/01/01 01:19:20;;;;;;;3.47;1.77;;;6.90;1.00;7.00;94840.00;;;;4953574;28;20210;-84
2022/01/01 01:21:49;;;;;;;2.10;1.73;;;6.90;99.90;7.00;94904.00;;;;4938962;28;20203;-82
2022/01/01 01:24:17;;;;;;;1.70;1.60;;;6.90;99.90;7.10;94806.00;;;;4935754;28;20788;-82
2022/01/01 01:26:49;;;;;;;2.13;1.60;;;6.80;99.90;7.10;94849.00;;;;4940027;28;20206;-82
2022/01/01 01:29:18;;;;;;;2.40;1.60;;;6.80;99.90;7.20;94916.00;;;;4937114;28;20685;-81
2022/01/01 01:31:46;;;;;;;3.33;1.67;;;6.90;99.90;7.00;94888.00;;;;4969295;28;20192;-82
2022/01/01 01:34:14;;;;;;;2.10;1.70;;;6.90;99.90;7.00;94866.00;;;;4951961;28;20691;-82
2022/01/01 01:36:41;;;;;;;2.00;1.67;;;6.80;99.90;6.90;94902.00;;;;4955583;28;20222;-81
2022/01/01 01:39:09;;;;;;;1.87;1.67;;;6.70;99.90;6.90;94708.00;;;;4941628;28;20197;-81
2022/01/01 01:41:36;;;;;;;2.40;1.60;;;6.60;99.90;6.60;94912.00;;;;4939956;28;20195;-83
2022/01/01 01:44:31;;;;;;;2.63;1.70;;;6.50;99.90;6.90;94769.00;;;;4941237;28;20203;-81
2022/01/01 01:47:02;;;;;;;1.97;1.70;;;6.40;99.90;6.60;94940.00;;;;4957109;28;20200;-81
2022/01/01 01:49:31;;;;;;;2.50;1.73;;;6.40;99.90;6.30;94965.00;;;;4942418;29;20195;-84
2022/01/01 01:51:59;;;;;;;3.70;1.63;;;6.20;99.90;6.10;94913.00;;;;4939270;28;20583;-82
2022/01/01 01:54:27;;;;;;;4.47;2.10;;;6.10;99.90;6.00;94847.00;;;;4943135;28;20190;-81
2022/01/01 01:56:56;;;;;;;2.60;1.90;;;6.00;99.90;6.30;94918.00;;;;4946086;28;20202;-83
2022/01/01 01:59:25;;;;;;;7.60;5.47;;;6.00;99.90;6.40;94841.00;;;;4956675;28;20674;-81
2022/01/01 02:01:54;;;;;;;2.27;1.90;;;6.00;99.90;6.40;94794.00;;;;4942022;29;20203;-82
2022/01/01 02:04:22;;;;;;;6.20;2.00;;;6.10;99.90;6.60;94617.00;;;;4943409;28;20685;-83
2022/01/01 02:06:50;;;;;;;2.97;2.10;;;6.20;99.90;6.70;94919.00;;;;4945203;28;20677;-81
2022/01/01 02:09:17;;;;;;;3.97;1.90;;;6.20;99.90;6.60;94901.00;;;;4939341;28;20250;-83
2022/01/01 02:11:44;;;;;;;2.30;2.10;;;6.20;99.90;6.20;94722.00;;;;4926465;28;20200;-81
2022/01/01 02:14:36;;;;;;;3.57;2.03;;;6.20;99.90;7.00;94919.00;;;;4972443;28;20242;-81
2022/01/01 02:19:50;;;;;;;4.43;2.10;;;6.50;99.90;7.40;94899.00;;;;4959536;28;20253;-81
2022/01/01 02:22:19;;;;;;;2.90;2.17;;;6.60;99.90;7.10;94877.00;;;;4942124;28;20654;-82
2022/01/01 02:24:46;;;;;;;2.63;2.00;;;6.80;99.90;7.60;94899.00;;;;4954556;28;20306;-81
2022/01/01 02:27:14;;;;;;;2.50;2.00;;;6.90;99.90;7.80;94767.00;;;;4943288;28;20230;-81
2022/01/01 02:29:41;;;;;;;3.47;2.10;;;7.00;99.90;7.60;94759.00;;;;4941427;28;20206;-83
2022/01/01 02:32:11;;;;;;;2.20;1.83;;;7.10;1.00;7.60;94905.00;;;;4958968;28;20191;-82
2022/01/01 02:34:42;;;;;;;2.37;1.70;;;7.30;1.00;7.60;94857.00;;;;4957368;28;20199;-83
2022/01/01 02:37:09;;;;;;;4.43;2.63;;;7.20;99.90;7.90;94894.00;;;;4955354;28;20242;-81
2022/01/01 02:39:36;;;;;;;3.95;2.70;;;7.30;99.90;7.70;94782.00;;;;4941173;28;21101;-82
2022/01/01 02:42:08;;;;;;;2.87;2.00;;;7.30;99.90;7.70;94698.00;;;;4940033;28;21600;-83
2022/01/01 02:44:38;;;;;;;2.53;2.17;;;7.40;99.90;7.80;94887.00;;;;4955177;28;20818;-82
2022/01/01 02:47:05;;;;;;;3.93;2.30;;;7.40;81.60;8.00;94823.00;;;;4955034;28;20739;-82
2022/01/01 02:49:32;;;;;;;4.30;2.60;;;7.50;1.00;7.90;94899.00;;;;4956209;28;20196;-83
2022/01/01 02:51:59;;;;;;;3.40;2.23;;;7.50;1.00;7.80;94792.00;;;;4939735;28;20293;-83
2022/01/01 02:54:26;;;;;;;3.83;2.30;;;7.50;1.00;7.60;94872.00;;;;4940333;28;20202;-82
2022/01/01 02:56:54;;;;;;;4.50;1.90;;;7.60;1.00;7.70;94905.00;;;;4956466;28;20316;-86
2022/01/01 02:59:22;;;;;;;2.87;2.13;;;7.60;1.00;7.80;94772.00;;;;4956855;28;20198;-81
2022/01/01 03:01:49;;;;;;;3.95;2.17;;;7.70;1.00;7.80;94870.00;;;;4960321;28;20230;-83
2022/01/01 03:04:16;;;;;;;2.78;2.10;;;7.70;1.00;7.70;94910.00;;;;4959040;28;20210;-83
2022/01/01 03:06:45;;;;;;;3.78;2.10;;;7.70;1.00;7.80;94916.00;;;;4955939;28;20196;-82
2022/01/01 03:09:12;;;;;;;2.10;1.90;;;7.70;1.00;7.80;94883.00;;;;4954907;28;20182;-81
2022/01/01 03:11:39;;;;;;;2.35;1.85;;;7.70;1.00;7.50;94710.00;;;;4955889;28;20218;-81
2022/01/01 03:14:06;;;;;;;2.70;1.90;;;7.70;1.00;7.80;94764.00;;;;4955342;28;20565;-84
2022/01/01 03:16:34;;;;;;;4.40;2.03;;;7.70;1.00;7.90;94780.00;;;;4954628;28;20191;-81
2022/01/01 03:19:01;;;;;;;2.35;1.85;;;7.80;1.00;8.00;94874.00;;;;4959455;28;20207;-81
2022/01/01 03:21:28;;;;;;;3.93;1.90;;;7.80;1.00;7.80;94789.00;;;;4939876;28;20195;-83
2022/01/01 03:23:55;;;;;;;2.23;1.60;;;7.80;1.00;7.50;94861.00;;;;4941212;28;20202;-82
2022/01/01 03:26:22;;;;;;;2.15;1.80;;;7.80;1.00;7.40;94794.00;;;;4956540;28;20214;-81
2022/01/01 03:28:50;;;;;;;5.70;1.85;;;7.60;1.00;7.30;94901.00;;;;4976858;28;20213;-82
2022/01/01 03:31:18;;;;;;;4.07;2.00;;;7.60;14.80;7.00;94900.00;;;;4940631;28;20218;-83
2022/01/01 03:33:45;;;;;;;4.32;1.90;;;7.50;99.90;7.30;94864.00;;;;4952749;28;20545;-82
2022/01/01 03:36:12;;;;;;;2.83;1.67;;;7.50;99.90;7.20;94803.00;;;;4938857;28;20250;-84
2022/01/01 03:38:40;;;;;;;2.50;1.40;;;7.50;99.90;7.10;94872.00;;;;4938239;29;20195;-84
2022/01/01 03:41:07;;;;;;;2.87;2.10;;;7.40;99.90;7.10;94900.00;;;;4939684;28;20246;-84
2022/01/01 03:43:35;;;;;;;3.22;1.77;;;7.30;99.90;6.70;94894.00;;;;4969010;28;20206;-83
2022/01/01 03:46:02;;;;;;;5.07;2.30;;;7.20;99.90;6.90;94806.00;;;;4955006;28;20233;-83
2022/01/01 03:48:29;;;;;;;3.75;2.10;;;7.20;99.90;6.70;94746.00;;;;4940537;28;20223;-85
2022/01/01 03:50:56;;;;;;;3.00;2.15;;;7.10;99.90;7.00;94715.00;;;;4958406;28;20227;-84
2022/01/01 03:53:25;;;;;;;2.57;2.00;;;7.10;99.90;7.00;94775.00;;;;4938588;28;20192;-83
2022/01/01 03:55:53;;;;;;;3.23;2.27;;;7.10;99.90;7.10;94640.00;;;;4940387;28;20205;-82
2022/01/01 03:58:21;;;;;;;2.77;2.30;;;7.10;99.90;7.10;94821.00;;;;4957081;28;20199;-82
2022/01/01 04:00:48;;;;;;;5.40;1.93;;;7.10;99.90;6.60;94885.00;;;;4955584;28;20196;-84
2022/01/01 04:03:18;;;;;;;2.60;1.97;;;7.10;99.90;6.80;94791.00;;;;4942665;28;20218;-84
2022/01/01 04:05:46;;;;;;;2.13;1.90;;;7.20;99.90;6.60;94690.00;;;;4956093;28;20633;-83
2022/01/01 04:08:14;;;;;;;2.50;1.67;;;7.20;99.90;6.90;94701.00;;;;4956035;28;20641;-84
2022/01/01 04:10:42;;;;;;;2.20;1.73;;;7.20;99.90;6.80;94766.00;;;;4938515;28;20183;-83
2022/01/01 04:13:10;;;;;;;2.77;1.83;;;7.00;99.90;6.70;94909.00;;;;4941084;28;20230;-82
2022/01/01 04:15:41;;;;;;;2.97;1.80;;;7.00;99.90;6.70;94667.00;;;;4941064;28;20209;-82
2022/01/01 04:18:12;;;;;;;1.93;1.63;;;6.80;99.90;6.60;94595.00;;;;4943940;28;20740;-82
2022/01/01 04:20:45;;;;;;;4.33;1.73;;;6.70;99.90;6.50;94578.00;;;;4943242;28;20211;-83
2022/01/01 04:23:13;;;;;;;4.63;2.00;;;6.70;99.90;6.50;94867.00;;;;4955308;28;20203;-83
2022/01/01 04:25:44;;;;;;;2.17;1.73;;;6.50;99.90;5.70;94559.00;;;;4942509;28;20230;-81
2022/01/01 04:28:11;;;;;;;2.73;1.60;;;6.50;99.90;6.40;94756.00;;;;4955073;28;20234;-84
2022/01/01 04:30:38;;;;;;;2.37;1.83;;;6.30;99.90;6.20;94858.00;;;;4957279;28;20195;-83
2022/01/01 04:33:07;;;;;;;2.63;2.10;;;6.20;99.90;5.60;94781.00;;;;4939854;29;20203;-81
2022/01/01 04:35:34;;;;;;;4.10;2.03;;;6.20;99.90;5.70;94880.00;;;;4969011;28;20199;-82
2022/01/01 04:38:01;;;;;;;3.90;1.70;;;6.10;99.90;6.00;94852.00;;;;4943800;28;20592;-83
2022/01/01 04:40:30;;;;;;;2.73;1.60;;;6.00;1.00;5.70;94646.00;;;;4940866;28;20195;-82
2022/01/01 04:42:57;;;;;;;2.63;2.10;;;5.80;1.00;5.50;94569.00;;;;4945520;28;20198;-82
2022/01/01 04:45:26;;;;;;;2.37;1.77;;;5.70;1.00;5.30;94586.00;;;;4956439;28;20215;-83
2022/01/01 04:47:54;;;;;;;2.53;1.83;;;5.50;1.00;5.40;94605.00;;;;4941488;28;20273;-82
2022/01/01 04:50:24;;;;;;;1.77;1.53;;;5.50;1.00;4.90;94808.00;;;;4955697;28;20222;-83
2022/01/01 04:52:55;;;;;;;2.20;2.00;;;5.60;1.00;6.00;94952.00;;;;4939983;28;20647;-83
2022/01/01 04:55:25;;;;;;;2.20;2.00;;;5.70;15.30;5.30;94482.00;;;;4971438;28;20202;-82
2022/01/01 04:57:53;;;;;;;3.37;2.00;;;5.70;40.80;5.90;94650.00;;;;4957253;28;20195;-83
2022/01/01 05:00:22;;;;;;;1.67;1.57;;;5.70;57.00;5.70;94591.00;;;;4973562;28;20225;-84
2022/01/01 05:02:50;;;;;;;3.60;2.00;;;5.70;64.60;5.90;94889.00;;;;4970065;28;20535;-82
2022/01/01 05:05:17;;;;;;;2.10;1.90;;;5.60;59.40;5.80;94885.00;;;;4939143;28;20608;-82
2022/01/01 05:07:44;;;;;;;2.03;1.70;;;5.50;41.80;5.50;94894.00;;;;4951455;28;20187;-82
2022/01/01 05:10:12;;;;;;;2.80;1.93;;;5.40;27.40;5.40;94872.00;;;;4940410;28;20192;-83
2022/01/01 05:12:44;;;;;;;2.33;1.73;;;5.30;55.70;4.20;94623.00;;;;4944173;28;20187;-82
2022/01/01 05:15:13;;;;;;;2.90;2.00;;;5.20;68.50;5.30;94661.00;;;;4969563;28;20196;-83
2022/01/01 05:17:41;;;;;;;2.87;2.20;;;5.20;99.90;3.90;94947.00;;;;4956277;28;20209;-84
2022/01/01 05:20:09;;;;;;;3.77;2.13;;;5.10;99.90;5.20;94980.00;;;;4945293;28;20191;-83
2022/01/01 05:22:36;;;;;;;4.20;2.53;;;5.10;99.90;5.00;94911.00;;;;4944697;29;20319;-83
2022/01/01 05:25:06;;;;;;;2.90;2.23;;;5.00;99.90;4.00;94705.00;;;;4956166;28;20700;-82
2022/01/01 05:27:40;;;;;;;3.80;1.97;;;4.90;99.90;4.60;94938.00;;;;4944760;28;20287;-83
2022/01/01 05:30:12;;;;;;;2.63;2.10;;;4.80;99.90;3.80;94594.00;;;;4953748;28;20187;-82
2022/01/01 05:32:41;;;;;;;6.57;2.30;;;4.70;99.90;4.80;94660.00;;;;4942056;29;20214;-83
2022/01/01 05:35:09;;;;;;;4.13;2.27;;;4.70;99.90;4.80;94905.00;;;;4958296;28;20287;-83
2022/01/01 05:37:37;;;;;;;6.33;2.70;;;4.70;99.90;4.80;94689.00;;;;4948766;28;20265;-83
2022/01/01 05:40:05;;;;;;;4.97;2.70;;;4.70;99.90;4.70;94654.00;;;;4943137;28;20206;-82
2022/01/01 05:42:34;;;;;;;4.23;2.17;;;4.70;99.90;3.70;94662.00;;;;4938178;28;20701;-82
2022/01/01 05:45:03;;;;;;;3.33;2.57;;;4.70;99.90;4.50;94602.00;;;;4947200;28;20662;-83
2022/01/01 05:47:30;;;;;;;3.83;2.50;;;4.80;99.90;5.10;94925.00;;;;4960047;28;20203;-82
2022/01/01 05:49:58;;;;;;;7.57;3.30;;;4.80;99.90;5.00;94621.00;;;;4955314;28;20196;-82
2022/01/01 05:52:26;;;;;;;5.40;2.77;;;5.00;1.00;5.70;94640.00;;;;4951749;28;20709;-83
2022/01/01 05:54:53;;;;;;;6.70;3.03;;;5.20;1.00;5.80;94728.00;;;;4941676;28;20217;-82
2022/01/01 05:57:20;;;;;;;4.73;2.93;;;5.40;1.00;5.50;94588.00;;;;4942672;28;20201;-83
2022/01/01 05:59:48;;;;;;;4.87;2.60;;;5.50;1.00;5.10;94913.00;;;;4946615;28;20677;-83
2022/01/01 06:02:15;;;;;;;4.70;2.90;;;5.60;1.00;5.20;94746.00;;;;4941678;28;20199;-85
2022/01/01 06:04:42;;;;;;;4.73;2.63;;;5.70;1.00;5.60;94806.00;;;;4960459;28;20674;-84
2022/01/01 06:07:10;;;;;;;4.00;2.40;;;5.70;1.00;5.00;94893.00;;;;4944939;28;20243;-83
2022/01/01 06:09:37;;;;;;;5.57;3.03;;;5.80;1.00;6.30;94950.00;;;;4942221;29;20192;-81
2022/01/01 06:12:05;;;;;;;4.80;2.70;;;5.90;1.00;6.40;94830.00;;;;4940472;28;20191;-82
2022/01/01 06:14:32;;;;;;;5.73;2.53;;;5.90;1.00;6.50;94831.00;;;;4944503;28;20237;-81
2022/01/01 06:16:59;;;;;;;4.33;2.67;;;6.00;1.00;6.50;94916.00;;;;4941345;28;20258;-82
2022/01/01 06:19:26;;;;;;;2.80;2.20;;;6.10;1.00;6.50;94791.00;;;;4955650;28;20704;-80
2022/01/01 06:21:54;;;;;;;5.13;2.67;;;6.10;1.00;6.60;94926.00;;;;4939953;29;20674;-82
2022/01/01 06:24:25;;;;;;;3.23;2.27;;;6.20;1.00;6.60;94935.00;;;;4958951;28;20211;-83
2022/01/01 06:26:53;;;;;;;4.57;2.67;;;6.20;1.00;6.30;94928.00;;;;4940483;28;20699;-82
2022/01/01 06:29:20;;;;;;;3.20;2.30;;;6.30;1.00;6.40;94955.00;;;;4945924;28;20191;-82
2022/01/01 06:31:48;;;;;;;2.27;2.07;;;6.40;1.00;6.70;94843.00;;;;4955826;28;20601;-83
2022/01/01 06:34:15;;;;;;;2.70;2.20;;;6.30;1.00;6.50;94810.00;;;;4944573;29;21661;-83
2022/01/01 06:36:45;;;;;;;2.97;2.30;;;6.30;1.00;6.60;94909.00;;;;4944839;28;20222;-83
2022/01/01 06:39:13;;;;;;;3.60;2.03;;;6.30;1.00;6.40;94931.00;;;;4967586;28;20590;-84
2022/01/01 06:41:41;;;;;;;2.10;1.80;;;6.20;1.00;6.30;94829.00;;;;4943417;28;20658;-82
2022/01/01 06:44:08;;;;;;;3.73;1.87;;;6.10;1.00;6.10;94829.00;;;;4961693;28;20248;-82
2022/01/01 06:46:35;;;;;;;2.70;2.00;;;6.00;1.00;5.40;94962.00;;;;4943289;28;20682;-83
2022/01/01 06:49:06;;;;;;;3.77;2.20;;;5.90;1.00;5.60;94652.00;;;;4972512;28;20685;-84
2022/01/01 06:51:34;;;;;;;3.23;2.10;;;5.80;1.00;5.80;94879.00;;;;4945896;28;20242;-80
2022/01/01 06:54:02;;;;;;;5.10;2.17;;;5.80;1.00;5.70;94814.00;;;;4940588;29;20233;-81
2022/01/01 06:56:29;;;;;;;3.30;2.10;;;5.70;1.00;5.10;94613.00;;;;4943564;28;20191;-80
2022/01/01 06:58:57;;;;;;;4.73;2.33;;;5.70;1.00;5.70;94931.00;;;;4948434;28;20194;-82
2022/01/01 07:01:25;;;;;;;3.30;2.13;;;5.60;1.00;5.00;94627.00;;;;4945744;29;20195;-83
2022/01/01 07:03:53;;;;;;;3.37;2.30;;;5.70;1.00;5.70;94888.00;;;;4971810;28;20206;-84
2022/01/01 07:06:21;;;;;;;3.80;2.37;;;5.60;1.00;5.70;94971.00;;;;4965466;28;20238;-82
2022/01/01 07:08:49;;;;;;;4.23;2.70;;;5.60;1.00;5.80;94606.00;;;;4949528;28;20217;-82
2022/01/01 07:11:17;;;;;;;3.70;2.30;;;5.60;1.00;5.30;94696.00;;;;4959409;28;20630;-82
2022/01/01 07:13:45;;;;;;;5.93;2.50;;;5.60;1.00;5.10;94950.00;;;;4963759;28;20285;-84
2022/01/01 07:16:12;;;;;;;3.80;2.63;;;5.50;1.00;5.40;94701.00;;;;4947352;28;20195;-83
2022/01/01 07:18:42;;;;;;;6.00;2.70;;;5.40;1.00;5.40;94907.00;;;;4958467;28;20198;-84
2022/01/01 07:21:13;;;;;;;7.50;2.30;;;5.30;1.00;5.40;94703.00;;;;4961689;28;20195;-83
2022/01/01 07:23:45;;;;;;;7.33;2.60;;;5.30;1.00;5.60;94647.00;;;;4969509;28;20246;-84
2022/01/01 07:26:22;;;;;;;6.87;2.83;;;5.30;1.00;4.40;94899.00;;;;4954313;29;20262;-82
2022/01/01 07:28:50;;;;;;;8.70;3.10;;;5.40;1.00;5.70;94573.00;;;;4964828;28;20183;-83
2022/01/01 07:31:19;;;;;;;5.43;2.60;;;5.40;1.00;5.70;94576.00;;;;4963425;28;20219;-82
2022/01/01 07:33:47;;;;;;;6.00;2.80;;;5.40;1.00;5.50;94937.00;;;;4950590;28;20206;-84
2022/01/01 07:36:17;;;;;;;4.33;2.60;;;5.50;1.00;6.20;94531.00;;;;4953599;29;20270;-83
2022/01/01 07:38:45;;;;;;;6.17;2.60;;;5.70;1.00;6.60;94983.00;;;;4959208;28;20205;-85
2022/01/01 07:41:13;;;;;;;4.93;2.40;;;5.90;1.00;6.60;94930.00;;;;4957344;28;20318;-82
2022/01/01 07:43:43;;;;;;;4.30;2.50;;;6.10;1.00;7.10;94624.00;;;;4949214;28;20191;-84
2022/01/01 07:46:11;;;;;;;5.80;2.70;;;6.20;1.00;6.30;94953.00;;;;4941941;28;20214;-80
2022/01/01 07:48:38;;;;;;;2.73;2.13;;;6.40;1.00;7.30;94580.00;;;;4939991;28;20227;-83
2022/01/01 07:51:09;;;;;;;5.07;2.23;;;6.50;1.00;7.50;94600.00;;;;4940869;28;20199;-84
2022/01/01 07:53:38;;;;;;;3.30;2.17;;;6.80;1.00;7.40;94959.00;;;;4941567;29;20199;-86
2022/01/01 07:56:05;;;;;;;3.17;1.80;;;6.90;1.00;6.80;94877.00;;;;4960949;28;20289;-84
2022/01/01 07:58:33;;;;;;;3.97;2.03;;;6.90;1.00;6.40;94576.00;;;;4943556;28;20195;-84
2022/01/01 08:01:00;;;;;;;2.50;2.00;;;7.00;1.00;7.40;94874.00;;;;4957098;28;20214;-83
2022/01/01 08:03:27;;;;;;;4.60;2.17;;;7.00;1.00;7.60;94789.00;;;;4958116;28;20191;-84
2022/01/01 08:05:55;;;;;;;4.97;2.20;;;7.00;1.00;7.50;94896.00;;;;4942267;28;20270;-84
2022/01/01 08:08:22;;;;;;;5.30;2.10;;;7.00;1.00;7.40;94828.00;;;;4941842;28;20282;-83
2022/01/01 08:10:50;;;;;;;3.67;2.10;;;7.00;2.60;7.50;94881.00;;;;4944565;28;20753;-86
2022/01/01 08:13:24;;;;;;;3.43;1.80;;;6.90;15.60;7.20;94902.00;;;;4942831;28;20202;-84
2022/01/01 08:15:55;;;;;;;4.43;1.80;;;7.00;30.80;7.70;94803.00;;;;4938423;28;20354;-84
2022/01/01 08:18:23;;;;;;;3.10;1.83;;;7.10;52.90;7.80;94912.00;;;;4955448;28;20684;-85
2022/01/01 08:20:50;;;;;;;3.53;1.75;;;7.20;99.90;8.20;94919.00;;;;4938612;28;20686;-83
2022/01/01 08:23:17;;;;;;;1.85;1.38;;;7.20;99.90;8.60;94902.00;;;;4938482;28;20729;-83
2022/01/01 08:25:44;;;;;;;3.45;1.17;;;7.30;99.90;8.90;94927.00;;;;4938213;28;21002;-81
2022/01/01 08:28:11;;;;;;;1.40;1.30;;;7.50;99.90;9.10;94772.00;;;;4938111;28;20205;-85
2022/01/01 08:30:38;;;;;;;3.65;1.20;;;7.70;99.90;9.20;94926.00;;;;4953628;28;20199;-85
2022/01/01 08:33:06;;;;;;;1.83;1.27;;;8.10;99.90;9.90;94781.00;;;;4939027;28;20333;-82
2022/01/01 08:35:35;;;;;;;1.40;0.95;;;8.40;99.90;10.30;94884.00;;;;4954144;28;20199;-84
2022/01/01 08:38:06;;;;;;;1.25;0.93;;;8.60;99.90;10.10;94916.00;;;;4935234;28;20186;-84
2022/01/01 08:40:35;;;;;;;1.73;0.95;;;8.70;99.90;9.70;94890.00;;;;4961201;28;20204;-81
2022/01/01 08:43:02;;;;;;;1.38;0.88;;;9.00;99.90;10.00;94887.00;;;;4937745;28;20207;-82
2022/01/01 08:45:35;;;;;;;1.50;1.08;;;9.20;1.00;10.10;94908.00;;;;4963469;28;20199;-83
2022/01/01 08:48:03;;;;;;;1.65;1.00;;;9.50;1.00;10.50;94923.00;;;;4965373;28;20575;-83
2022/01/01 08:50:30;;;;;;;2.00;0.95;;;9.90;99.90;10.40;94935.00;;;;4938085;28;20199;-83
2022/01/01 08:52:58;;;;;;;2.22;1.00;;;10.30;1.00;10.60;94953.00;;;;4938048;28;20205;-84
2022/01/01 08:55:26;;;;;;;2.63;1.10;;;10.70;1.00;11.20;94933.00;;;;4957527;28;20281;-82
2022/01/01 08:57:53;;;;;;;2.65;1.02;;;11.10;99.90;11.40;94924.00;;;;4942879;28;20203;-82
2022/01/01 09:00:41;;;;;;;1.23;0.80;;;11.50;1.00;12.10;94884.00;;;;4957378;28;20211;-82
2022/01/01 09:03:08;;;;;;;0.95;0.80;;;12.10;99.90;12.00;94898.00;;;;4941387;28;20217;-82
2022/01/01 09:05:41;;;;;;;2.10;0.90;;;12.50;1.00;12.40;94909.00;;;;4940969;28;20976;-82
2022/01/01 09:08:31;;;;;;;1.20;0.82;;;12.70;1.00;12.90;94875.00;;;;4942605;28;20203;-81
2022/01/01 09:10:59;;;;;;;2.72;1.00;;;13.20;99.90;13.70;94880.00;;;;4956457;28;20966;-81
2022/01/01 09:13:26;;;;;;;1.60;0.95;;;13.50;99.90;14.10;94883.00;;;;4941471;28;21013;-80
2022/01/01 09:15:53;;;;;;;2.30;0.90;;;13.70;99.90;13.70;94894.00;;;;4942406;28;20261;-81
2022/01/01 09:18:21;;;;;;;2.47;0.82;;;14.10;99.90;13.90;94899.00;;;;4957682;28;20618;-82
2022/01/01 09:20:48;;;;;;;1.00;0.77;;;14.40;15.20;13.50;94924.00;;;;4956802;28;20199;-81
2022/01/01 09:23:16;;;;;;;1.20;0.90;;;15.00;1.00;13.80;94919.00;;;;4941750;28;20542;-81
2022/01/01 09:25:43;;;;;;;0.88;0.70;;;15.50;1.00;13.30;94887.00;;;;4940733;28;20206;-80
2022/01/01 09:28:11;;;;;;;0.68;0.63;;;16.10;99.90;13.70;94925.00;;;;4953856;28;20662;-81
2022/01/01 09:30:38;;;;;;;2.05;1.00;;;16.50;99.90;14.00;94918.00;;;;4957813;28;20229;-81
2022/01/01 09:33:06;;;;;;;1.85;0.82;;;16.90;1.00;14.20;94937.00;;;;4956242;28;20223;-81
2022/01/01 09:35:33;;;;;;;2.30;0.88;;;17.40;1.00;14.80;94925.00;;;;4956883;28;20213;-80
2022/01/01 09:38:00;;;;;;;2.88;0.90;;;17.90;1.00;13.90;94893.00;;;;4939758;28;20219;-81
2022/01/01 09:40:28;;;;;;;1.77;1.08;;;17.90;99.90;15.50;94910.00;;;;4956797;28;20290;-81
2022/01/01 09:42:58;;;;;;;1.92;0.90;;;17.10;99.90;14.60;94926.00;;;;4941860;28;20198;-80
2022/01/01 09:45:26;;;;;;;1.65;1.00;;;17.00;1.00;16.00;94906.00;;;;4939482;28;20199;-79
2022/01/01 09:47:54;;;;;;;2.05;1.00;;;17.00;1.00;15.80;94925.00;;;;4941008;28;20309;-79
2022/01/01 09:50:21;;;;;;;1.98;1.00;;;16.60;1.00;15.70;94894.00;;;;4957219;28;20741;-79
2022/01/01 09:52:51;;;;;;;3.38;1.08;;;16.40;1.00;15.90;94922.00;;;;4952161;28;20206;-79
2022/01/01 09:55:18;;;;;;;4.20;0.93;;;16.20;1.00;15.90;94879.00;;;;4955160;28;20217;-79
2022/01/01 09:57:48;;;;;;;1.98;1.10;;;15.90;1.00;15.60;94914.00;;;;4947144;28;20683;-80
2022/01/01 10:00:15;;;;;;;2.63;1.05;;;15.50;1.00;15.00;94910.00;;;;4936365;28;20705;-79
2022/01/01 10:02:42;;;;;;;2.17;1.20;;;15.20;99.90;15.40;94924.00;;;;4957439;28;20214;-80
2022/01/01 10:05:10;;;;;;;1.13;0.88;;;15.10;99.90;16.00;94857.00;;;;4957565;28;20211;-80
2022/01/01 10:07:37;;;;;;;1.20;0.90;;;15.20;99.90;14.80;94921.00;;;;4953795;28;20250;-81
2022/01/01 10:10:24;;;;;;;2.42;0.98;;;15.60;80.70;15.90;94905.00;;;;4956089;28;20199;-80
2022/01/01 10:12:52;;;;;;;3.25;1.15;;;15.90;4.80;15.10;94897.00;;;;4956376;28;20209;-82
2022/01/01 10:15:20;;;;;;;1.15;0.85;;;16.30;24.50;15.90;94924.00;;;;4956613;28;20554;-84
2022/01/01 10:17:47;;;;;;;2.95;1.00;;;16.70;1.00;16.10;94899.00;;;;4954788;28;20195;-81
2022/01/01 10:20:15;;;;;;;2.65;0.95;;;17.10;1.00;15.70;94885.00;;;;4956380;28;20205;-81
2022/01/01 10:22:49;;;;;;;0.90;0.90;;;17.50;1.00;15.80;94900.00;;;;4958153;28;20259;-80
2022/01/01 10:28:05;;;;;;;2.15;0.80;;;17.60;99.90;16.70;94871.00;;;;4957153;28;20235;-80
2022/01/01 10:30:40;;;;;;;1.98;1.10;;;17.80;99.90;16.60;94820.00;;;;4953773;28;20604;-81
2022/01/01 10:33:15;;;;;;;0.90;0.73;;;17.90;99.90;15.80;94921.00;;;;4939178;28;20725;-81
2022/01/01 10:35:56;;;;;;;1.60;1.02;;;18.30;99.90;15.90;94892.00;;;;4958513;28;20273;-81
2022/01/01 10:38:27;;;;;;;2.05;1.10;;;18.50;99.90;16.80;94847.00;;;;4956540;28;20323;-81
2022/01/01 10:41:04;;;;;;;2.20;1.00;;;18.60;99.90;16.50;94854.00;;;;4938177;28;20206;-83
2022/01/01 10:43:41;;;;;;;1.45;0.85;;;18.90;99.90;16.60;94871.00;;;;4955481;28;20230;-81
2022/01/01 10:46:12;;;;;;;1.98;1.00;;;19.00;99.90;16.60;94871.00;;;;4955311;28;20207;-80
2022/01/01 10:48:54;;;;;;;0.90;0.85;;;19.20;99.90;16.40;94863.00;;;;4936313;28;20203;-80
2022/01/01 10:51:21;;;;;;;2.05;0.82;;;19.50;99.90;16.40;94872.00;;;;4953861;28;20199;-80
2022/01/01 10:54:02;;;;;;;1.02;0.85;;;19.60;99.90;16.10;94837.00;;;;4956230;28;20206;-79
2022/01/01 10:56:40;;;;;;;1.10;0.80;;;19.60;99.90;17.00;94876.00;;;;4937829;28;20610;-81
2022/01/01 10:59:09;;;;;;;1.73;0.93;;;19.30;99.90;16.90;94863.00;;;;4954335;28;20824;-82
2022/01/01 11:01:44;;;;;;;2.53;1.35;;;19.30;99.90;16.40;94887.00;;;;4954826;28;20223;-80
2022/01/01 11:04:13;;;;;;;1.67;1.40;;;19.60;99.90;16.70;94851.00;;;;4939546;28;20672;-80
2022/01/01 11:06:41;;;;;;;1.48;1.38;;;19.90;99.90;16.30;94842.00;;;;4938109;28;20780;-80
2022/01/01 11:09:14;;;;;;;2.85;1.65;;;19.90;99.90;16.40;94868.00;;;;4955413;28;20199;-81
2022/01/01 11:11:42;;;;;;;2.60;1.70;;;19.80;99.90;16.20;94876.00;;;;4955059;28;20296;-81
2022/01/01 11:14:11;;;;;;;1.25;1.15;;;19.60;99.90;16.30;94846.00;;;;4954106;28;20686;-80
2022/01/01 11:16:39;;;;;;;2.63;1.15;;;19.10;99.90;15.90;94861.00;;;;4938936;28;20666;-82
2022/01/01 11:19:09;;;;;;;5.00;1.45;;;18.90;99.90;16.30;94826.00;;;;4970451;28;20745;-82
2022/01/01 11:21:37;;;;;;;1.90;1.20;;;18.50;99.90;16.80;94860.00;;;;4969731;28;20290;-82